createdAt,value
2022-10-21T00:01:47.363Z,7.55
2022-10-21T00:04:14.472Z,7.25
2022-10-21T00:06:41.676Z,7.57
2022-10-21T00:09:08.878Z,8.35
2022-10-21T00:11:35.995Z,7.30
2022-10-21T00:14:05.799Z,7.65
2022-10-21T00:16:32.941Z,7.57
2022-10-21T00:19:00.084Z,8.30
2022-10-21T00:21:27.239Z,7.47
2022-10-21T00:23:54.393Z,7.80
2022-10-21T00:26:22.573Z,7.70
2022-10-21T00:31:17.362Z,7.97
2022-10-21T00:33:44.482Z,7.43
2022-10-21T00:36:15.393Z,7.80
2022-10-21T00:38:43.922Z,7.90
2022-10-21T00:41:11.682Z,7.38
2022-10-21T00:43:57.572Z,7.95
2022-10-21T00:46:28.220Z,7.57
2022-10-21T00:48:58.403Z,7.40
2022-10-21T00:51:25.751Z,7.28
2022-10-21T00:53:53.212Z,7.77
2022-10-21T00:56:24.473Z,7.63
2022-10-21T00:58:52.444Z,7.32
2022-10-21T01:01:21.588Z,7.45
2022-10-21T01:03:49.253Z,7.63
2022-10-21T01:06:16.728Z,7.40
2022-10-21T01:08:44.111Z,7.03
2022-10-21T01:11:16.418Z,7.40
2022-10-21T01:13:49.364Z,7.20
2022-10-21T01:16:37.306Z,7.13
2022-10-21T01:21:37.406Z,7.00
2022-10-21T01:24:17.329Z,7.40
2022-10-21T01:27:03.129Z,7.28
2022-10-21T01:29:48.696Z,7.07
2022-10-21T01:32:22.068Z,7.00
2022-10-21T01:34:49.164Z,6.28
2022-10-21T01:37:23.997Z,7.00
2022-10-21T01:39:56.947Z,7.25
2022-10-21T01:42:32.952Z,6.90
2022-10-21T01:45:07.996Z,5.95
2022-10-21T01:47:37.146Z,6.60
2022-10-21T01:50:16.038Z,6.93
2022-10-21T01:52:44.757Z,6.78
2022-10-21T01:55:15.271Z,6.45
2022-10-21T01:57:44.477Z,6.50
2022-10-21T02:00:11.868Z,6.53
2022-10-21T02:02:41.263Z,6.40
2022-10-21T02:05:13.285Z,7.10
2022-10-21T02:07:40.406Z,6.47
2022-10-21T02:10:07.821Z,6.45
2022-10-21T02:12:36.707Z,6.22
2022-10-21T02:15:06.457Z,6.38
2022-10-21T02:17:34.623Z,6.25
2022-10-21T02:22:29.131Z,6.10
2022-10-21T02:24:58.998Z,6.20
2022-10-21T02:27:26.563Z,6.03
2022-10-21T02:29:56.223Z,6.35
2022-10-21T02:32:26.154Z,5.82
2022-10-21T02:35:05.241Z,6.30
2022-10-21T02:37:34.482Z,6.00
2022-10-21T02:40:07.809Z,6.22
2022-10-21T02:42:37.730Z,6.07
2022-10-21T02:45:05.304Z,6.00
2022-10-21T02:47:34.918Z,6.00
2022-10-21T02:50:02.021Z,5.90
2022-10-21T02:52:29.141Z,5.78
2022-10-21T02:54:56.260Z,6.10
2022-10-21T02:57:23.379Z,5.63
2022-10-21T02:59:50.488Z,5.47
2022-10-21T03:02:17.593Z,5.38
2022-10-21T03:04:44.720Z,5.25
2022-10-21T03:07:11.892Z,5.40
2022-10-21T03:09:39.096Z,5.40
2022-10-21T03:12:06.212Z,4.90
2022-10-21T03:14:33.322Z,5.50
2022-10-21T03:17:00.427Z,5.28
2022-10-21T03:19:27.563Z,5.53
2022-10-21T03:21:54.680Z,5.70
2022-10-21T03:24:28.548Z,5.50
2022-10-21T03:26:56.667Z,5.65
2022-10-21T03:29:23.780Z,5.20
2022-10-21T03:31:50.900Z,5.05
2022-10-21T03:34:18.110Z,5.43
2022-10-21T03:36:45.383Z,4.67
2022-10-21T03:39:12.908Z,5.32
2022-10-21T03:41:40.197Z,4.95
2022-10-21T03:44:07.359Z,4.77
2022-10-21T03:46:34.490Z,5.07
2022-10-21T03:49:04.484Z,5.05
2022-10-21T03:51:32.816Z,4.95
2022-10-21T03:53:59.921Z,4.82
2022-10-21T03:56:27.147Z,4.80
2022-10-21T03:58:58.549Z,4.53
2022-10-21T04:01:26.340Z,5.10
2022-10-21T04:03:53.905Z,4.90
2022-10-21T04:06:21.296Z,4.60
2022-10-21T04:08:48.813Z,4.27
2022-10-21T04:11:15.972Z,4.80
2022-10-21T04:13:43.142Z,4.72
2022-10-21T04:16:13.283Z,4.47
2022-10-21T04:18:40.386Z,5.47
2022-10-21T04:21:08.795Z,4.70
2022-10-21T04:23:36.433Z,4.60
2022-10-21T04:26:03.919Z,4.60
2022-10-21T04:28:31.064Z,4.45
2022-10-21T04:30:58.164Z,4.22
2022-10-21T04:33:25.460Z,4.20
2022-10-21T04:35:54.408Z,4.43
2022-10-21T04:38:22.209Z,4.32
2022-10-21T04:40:55.231Z,4.30
2022-10-21T04:43:22.375Z,4.43
2022-10-21T04:45:49.479Z,4.20
2022-10-21T04:48:16.798Z,4.35
2022-10-21T04:50:44.062Z,3.37
2022-10-21T04:53:11.250Z,3.53
2022-10-21T04:55:41.414Z,2.28
2022-10-21T04:58:08.561Z,2.65
2022-10-21T05:00:36.012Z,2.65
2022-10-21T05:03:03.664Z,3.72
2022-10-21T05:05:30.891Z,2.80
2022-10-21T05:07:58.000Z,3.40
2022-10-21T05:10:25.601Z,4.55
2022-10-21T05:12:53.239Z,4.28
2022-10-21T05:15:20.569Z,3.70
2022-10-21T05:17:47.690Z,3.10
2022-10-21T05:20:14.880Z,3.03
2022-10-21T05:22:42.272Z,3.58
2022-10-21T05:25:09.659Z,4.25
2022-10-21T05:27:36.899Z,5.10
2022-10-21T05:30:04.791Z,3.05
2022-10-21T05:32:31.912Z,3.47
2022-10-21T05:34:59.024Z,3.92
2022-10-21T05:37:26.130Z,3.70
2022-10-21T05:39:53.236Z,3.38
2022-10-21T05:42:20.377Z,3.47
2022-10-21T05:44:48.239Z,5.03
2022-10-21T05:47:15.372Z,3.55
2022-10-21T05:49:42.479Z,3.25
2022-10-21T05:52:09.648Z,5.65
2022-10-21T05:54:36.753Z,4.03
2022-10-21T05:57:03.897Z,3.50
2022-10-21T05:59:31.033Z,5.30
2022-10-21T06:01:58.149Z,3.95
2022-10-21T06:04:25.317Z,3.70
2022-10-21T06:06:52.461Z,3.50
2022-10-21T06:09:19.697Z,5.20
2022-10-21T06:11:49.331Z,3.70
2022-10-21T06:14:16.454Z,3.35
2022-10-21T06:16:43.552Z,3.60
2022-10-21T06:19:10.667Z,3.17
2022-10-21T06:21:37.897Z,3.45
2022-10-21T06:24:05.074Z,3.47
2022-10-21T06:26:34.696Z,3.78
2022-10-21T06:29:04.072Z,3.63
2022-10-21T06:31:31.230Z,3.40
2022-10-21T06:33:58.349Z,3.63
2022-10-21T06:36:25.499Z,4.22
2022-10-21T06:38:52.828Z,3.85
2022-10-21T06:41:19.942Z,3.93
2022-10-21T06:43:47.063Z,3.53
2022-10-21T06:46:15.076Z,3.60
2022-10-21T06:48:42.354Z,3.60
2022-10-21T06:51:17.180Z,3.80
2022-10-21T06:53:44.523Z,3.08
2022-10-21T06:56:13.427Z,3.63
2022-10-21T06:58:43.435Z,4.20
2022-10-21T07:01:21.551Z,3.83
2022-10-21T07:03:58.761Z,3.83
2022-10-21T07:06:26.052Z,3.30
2022-10-21T07:08:58.173Z,3.30
2022-10-21T07:11:26.153Z,3.40
2022-10-21T07:13:53.275Z,3.63
2022-10-21T07:16:28.140Z,3.17
2022-10-21T07:18:55.389Z,3.15
2022-10-21T07:21:23.528Z,3.20
2022-10-21T07:26:24.582Z,3.53
2022-10-21T07:28:52.385Z,3.72
2022-10-21T07:31:20.633Z,3.63
2022-10-21T07:36:25.933Z,3.27
2022-10-21T07:38:55.000Z,3.45
2022-10-21T07:41:23.815Z,3.30
2022-10-21T07:43:51.211Z,3.70
2022-10-21T07:46:19.294Z,3.00
2022-10-21T07:48:46.450Z,3.35
2022-10-21T07:51:14.889Z,3.15
2022-10-21T07:53:42.083Z,3.17
2022-10-21T07:56:11.724Z,3.03
2022-10-21T07:58:38.945Z,3.20
2022-10-21T08:01:07.344Z,2.92
2022-10-21T08:03:34.648Z,3.30
2022-10-21T08:06:01.807Z,3.00
2022-10-21T08:08:29.045Z,3.08
2022-10-21T08:10:56.344Z,2.88
2022-10-21T08:13:23.740Z,3.43
2022-10-21T08:15:52.993Z,3.53
2022-10-21T08:18:20.663Z,3.65
2022-10-21T08:20:49.340Z,3.80
2022-10-21T08:23:18.332Z,3.60
2022-10-21T08:25:52.963Z,3.42
2022-10-21T08:28:20.425Z,3.25
2022-10-21T08:30:47.653Z,3.10
2022-10-21T08:33:15.179Z,2.88
2022-10-21T08:35:42.675Z,3.33
2022-10-21T08:38:10.504Z,3.10
2022-10-21T08:40:42.182Z,3.10
2022-10-21T08:43:10.423Z,3.35
2022-10-21T08:48:06.761Z,3.58
2022-10-21T08:50:39.704Z,3.90
2022-10-21T08:53:11.167Z,3.58
2022-10-21T08:55:42.853Z,3.60
2022-10-21T08:58:28.078Z,3.60
2022-10-21T09:00:58.638Z,3.15
2022-10-21T09:03:44.505Z,3.00
2022-10-21T09:06:18.036Z,3.53
2022-10-21T09:09:05.297Z,4.10
2022-10-21T09:11:37.331Z,3.78
2022-10-21T09:14:04.424Z,3.20
2022-10-21T09:16:34.380Z,4.10
2022-10-21T09:19:01.478Z,4.10
2022-10-21T09:21:37.725Z,3.05
2022-10-21T09:24:13.760Z,3.30
2022-10-21T09:26:41.858Z,3.67
2022-10-21T09:31:36.086Z,3.60
2022-10-21T09:34:04.410Z,3.88
2022-10-21T09:36:35.921Z,2.90
2022-10-21T09:39:04.856Z,2.90
2022-10-21T09:41:39.573Z,2.50
2022-10-21T09:44:06.928Z,2.65
2022-10-21T09:46:34.023Z,2.90
2022-10-21T09:51:50.021Z,2.65
2022-10-21T09:54:24.171Z,1.35
2022-10-21T09:56:58.506Z,1.90
2022-10-21T09:59:29.199Z,2.47
2022-10-21T10:02:06.862Z,2.08
2022-10-21T10:04:35.842Z,2.20
2022-10-21T10:07:04.187Z,2.45
2022-10-21T10:09:31.935Z,2.53
2022-10-21T10:12:06.920Z,2.33
2022-10-21T10:14:38.651Z,2.25
2022-10-21T10:17:24.699Z,2.20
2022-10-21T10:20:07.569Z,2.08
2022-10-21T10:22:45.759Z,2.15
2022-10-21T10:25:12.874Z,2.20
2022-10-21T10:27:51.506Z,2.17
2022-10-21T10:30:19.636Z,2.28
2022-10-21T10:32:47.561Z,2.63
2022-10-21T10:35:34.413Z,2.00
2022-10-21T10:38:02.638Z,1.98
2022-10-21T10:40:32.480Z,2.05
2022-10-21T10:43:04.921Z,2.20
2022-10-21T10:45:32.132Z,2.20
2022-10-21T10:48:00.415Z,2.38
2022-10-21T10:50:47.852Z,2.47
2022-10-21T10:53:17.727Z,2.10
2022-10-21T10:55:46.673Z,2.80
2022-10-21T10:58:16.422Z,2.60
2022-10-21T11:00:45.939Z,2.22
2022-10-21T11:03:16.301Z,2.35
2022-10-21T11:05:45.631Z,2.75
2022-10-21T11:08:15.799Z,2.78
2022-10-21T11:10:45.834Z,2.50
2022-10-21T11:13:20.325Z,2.47
2022-10-21T11:15:47.455Z,2.28
2022-10-21T11:18:25.233Z,2.50
2022-10-21T11:21:01.762Z,2.75
2022-10-21T11:23:37.848Z,2.75
2022-10-21T11:26:29.880Z,2.72
2022-10-21T11:29:05.451Z,2.80
2022-10-21T11:32:10.716Z,3.03
2022-10-21T11:34:49.341Z,3.10
2022-10-21T11:37:16.932Z,3.47
2022-10-21T11:39:47.527Z,3.38
2022-10-21T11:42:24.229Z,3.50
2022-10-21T11:45:03.473Z,3.60
2022-10-21T11:47:33.500Z,3.88
2022-10-21T11:50:21.664Z,3.72
2022-10-21T11:53:12.469Z,3.75
2022-10-21T11:55:59.827Z,4.10
2022-10-21T11:58:26.917Z,3.95
2022-10-21T12:00:54.015Z,3.70
2022-10-21T12:03:44.549Z,4.03
2022-10-21T12:06:24.288Z,4.35
2022-10-21T12:08:56.685Z,4.47
2022-10-21T12:11:26.327Z,4.20
2022-10-21T12:13:56.659Z,4.20
2022-10-21T12:16:25.507Z,4.38
2022-10-21T12:18:57.293Z,4.38
2022-10-21T12:21:25.999Z,4.60
2022-10-21T12:23:57.319Z,4.53
2022-10-21T12:26:27.360Z,4.50
2022-10-21T12:29:20.490Z,4.43
2022-10-21T12:31:50.706Z,4.47
2022-10-21T12:34:18.099Z,4.68
2022-10-21T12:36:49.380Z,4.63
2022-10-21T12:39:35.015Z,4.88
2022-10-21T12:42:15.579Z,4.90
2022-10-21T12:44:46.647Z,5.10
2022-10-21T12:47:33.620Z,5.18
2022-10-21T12:50:23.536Z,5.20
2022-10-21T12:53:16.810Z,4.65
2022-10-21T12:55:48.849Z,4.90
2022-10-21T12:58:22.965Z,4.85
2022-10-21T13:00:50.136Z,4.88
2022-10-21T13:03:24.223Z,4.95
2022-10-21T13:06:02.072Z,4.93
2022-10-21T13:08:37.768Z,4.72
2022-10-21T13:11:07.813Z,4.90
2022-10-21T13:13:45.871Z,4.50
2022-10-21T13:19:06.257Z,4.88
2022-10-21T13:21:37.617Z,4.95
2022-10-21T13:24:07.859Z,4.75
2022-10-21T13:26:39.642Z,5.25
2022-10-21T13:29:16.543Z,4.45
2022-10-21T13:31:43.900Z,4.50
2022-10-21T13:34:29.102Z,4.50
2022-10-21T13:36:56.891Z,4.57
2022-10-21T13:39:36.403Z,4.78
2022-10-21T13:42:17.505Z,4.70
2022-10-21T13:44:51.056Z,4.55
2022-10-21T13:47:18.918Z,4.13
2022-10-21T13:49:53.376Z,4.60
2022-10-21T13:52:20.487Z,4.50
2022-10-21T13:54:56.491Z,4.40
2022-10-21T13:57:23.599Z,4.30
2022-10-21T14:00:00.284Z,4.43
2022-10-21T14:02:27.613Z,4.47
2022-10-21T14:04:54.742Z,4.30
2022-10-21T14:07:22.036Z,4.50
2022-10-21T14:09:51.141Z,4.50
2022-10-21T14:12:24.594Z,4.43
2022-10-21T14:14:52.325Z,4.05
2022-10-21T14:17:20.577Z,3.92
2022-10-21T14:19:51.945Z,3.92
2022-10-21T14:22:20.741Z,4.00
2022-10-21T14:24:48.735Z,3.80
2022-10-21T14:27:25.444Z,4.10
2022-10-21T14:29:52.800Z,3.83
2022-10-21T14:32:21.513Z,3.77
2022-10-21T14:34:57.629Z,3.58
2022-10-21T14:37:24.738Z,3.92
2022-10-21T14:39:52.004Z,3.50
2022-10-21T14:42:21.056Z,3.55
2022-10-21T14:44:49.198Z,3.60
2022-10-21T14:49:50.330Z,3.78
2022-10-21T14:52:22.337Z,3.70
2022-10-21T14:54:58.059Z,3.50
2022-10-21T14:57:28.185Z,3.67
2022-10-21T14:59:55.716Z,3.75
2022-10-21T15:02:26.317Z,3.63
2022-10-21T15:04:55.821Z,3.80
2022-10-21T15:10:08.508Z,3.63
2022-10-21T15:12:41.731Z,3.80
2022-10-21T15:15:27.512Z,3.70
2022-10-21T15:18:03.947Z,3.80
2022-10-21T15:20:33.670Z,4.10
2022-10-21T15:23:00.841Z,3.63
2022-10-21T15:25:28.104Z,3.55
2022-10-21T15:27:59.929Z,3.70
2022-10-21T15:30:34.938Z,3.88
2022-10-21T15:33:02.072Z,3.70
2022-10-21T15:35:29.171Z,3.33
2022-10-21T15:37:56.333Z,3.83
2022-10-21T15:40:23.820Z,3.63
2022-10-21T15:42:51.019Z,3.78
2022-10-21T15:45:21.218Z,3.85
2022-10-21T15:47:54.077Z,3.58
2022-10-21T15:50:22.782Z,3.55
2022-10-21T15:52:49.959Z,3.72
2022-10-21T15:55:20.080Z,3.80
2022-10-21T15:57:47.226Z,3.40
2022-10-21T16:00:22.433Z,3.47
2022-10-21T16:02:51.625Z,3.80
2022-10-21T16:05:19.544Z,3.80
2022-10-21T16:07:46.757Z,3.55
2022-10-21T16:10:19.275Z,3.53
2022-10-21T16:12:46.638Z,3.20
2022-10-21T16:15:14.392Z,3.47
2022-10-21T16:17:47.638Z,3.47
2022-10-21T16:20:15.751Z,3.72
2022-10-21T16:22:43.192Z,3.40
2022-10-21T16:25:10.918Z,3.53
2022-10-21T16:27:44.113Z,3.42
2022-10-21T16:30:26.916Z,3.47
2022-10-21T16:32:54.035Z,3.55
2022-10-21T16:35:21.882Z,3.47
2022-10-21T16:37:49.544Z,3.58
2022-10-21T16:40:24.397Z,3.72
2022-10-21T16:42:51.906Z,3.35
2022-10-21T16:45:20.189Z,3.42
2022-10-21T16:47:48.578Z,3.10
2022-10-21T16:50:21.243Z,3.63
2022-10-21T16:52:48.618Z,3.42
2022-10-21T16:55:16.093Z,3.37
2022-10-21T16:57:43.673Z,3.15
2022-10-21T17:00:11.176Z,3.30
2022-10-21T17:02:40.499Z,3.40
2022-10-21T17:05:11.827Z,3.40
2022-10-21T17:07:39.092Z,3.00
2022-10-21T17:10:06.750Z,3.17
2022-10-21T17:12:34.746Z,3.20
2022-10-21T17:15:02.270Z,3.03
2022-10-21T17:17:29.397Z,3.08
2022-10-21T17:19:56.999Z,3.22
2022-10-21T17:22:24.144Z,3.50
2022-10-21T17:24:51.318Z,3.17
2022-10-21T17:27:19.696Z,3.30
2022-10-21T17:29:47.293Z,3.40
2022-10-21T17:32:14.424Z,3.13
2022-10-21T17:34:42.061Z,3.13
2022-10-21T17:37:10.579Z,3.10
2022-10-21T17:39:37.739Z,3.13
2022-10-21T17:42:04.901Z,3.05
2022-10-21T17:44:32.232Z,3.03
2022-10-21T17:46:59.345Z,2.93
2022-10-21T17:49:26.995Z,3.00
2022-10-21T17:51:56.636Z,2.92
2022-10-21T17:54:27.864Z,3.00
2022-10-21T17:56:57.202Z,3.00
2022-10-21T17:59:24.781Z,3.03
2022-10-21T18:01:51.901Z,3.17
2022-10-21T18:04:21.299Z,3.00
2022-10-21T18:06:48.434Z,2.60
2022-10-21T18:09:15.725Z,2.80
2022-10-21T18:11:42.926Z,3.00
2022-10-21T18:14:10.024Z,3.20
2022-10-21T18:16:37.182Z,2.75
2022-10-21T18:19:04.318Z,2.60
2022-10-21T18:21:31.663Z,2.60
2022-10-21T18:23:58.855Z,2.80
2022-10-21T18:26:27.955Z,2.50
2022-10-21T18:28:57.193Z,2.80
2022-10-21T18:31:24.745Z,3.00
2022-10-21T18:33:54.078Z,2.92
2022-10-21T18:36:21.378Z,2.80
2022-10-21T18:38:48.514Z,3.00
2022-10-21T18:41:19.994Z,2.80
2022-10-21T18:43:49.180Z,2.80
2022-10-21T18:46:16.423Z,2.80
2022-10-21T18:48:43.593Z,3.30
2022-10-21T18:51:11.508Z,2.78
2022-10-21T18:53:40.725Z,3.03
2022-10-21T18:56:09.094Z,2.72
2022-10-21T18:58:37.568Z,2.83
2022-10-21T19:01:05.389Z,2.72
2022-10-21T19:03:33.089Z,2.83
2022-10-21T19:06:16.415Z,2.75
2022-10-21T19:08:43.816Z,3.00
2022-10-21T19:11:10.971Z,2.70
2022-10-21T19:13:38.326Z,2.60
2022-10-21T19:16:05.573Z,2.73
2022-10-21T19:18:32.700Z,2.70
2022-10-21T19:20:59.821Z,2.70
2022-10-21T19:23:27.821Z,2.90
2022-10-21T19:25:55.027Z,2.67
2022-10-21T19:28:22.143Z,2.53
2022-10-21T19:30:49.291Z,2.88
2022-10-21T19:33:16.424Z,2.67
2022-10-21T19:35:43.614Z,2.80
2022-10-21T19:38:15.488Z,2.80
2022-10-21T19:43:15.788Z,2.42
2022-10-21T19:45:42.992Z,2.90
2022-10-21T19:48:10.499Z,2.55
2022-10-21T19:50:37.624Z,2.90
2022-10-21T19:53:04.738Z,2.70
2022-10-21T19:55:31.908Z,2.60
2022-10-21T19:57:59.049Z,2.95
2022-10-21T20:00:26.227Z,2.80
2022-10-21T20:02:53.341Z,2.80
2022-10-21T20:05:20.451Z,2.80
2022-10-21T20:07:47.608Z,3.03
2022-10-21T20:10:14.833Z,2.70
2022-10-21T20:12:42.485Z,2.75
2022-10-21T20:15:09.903Z,2.60
2022-10-21T20:17:37.261Z,2.65
2022-10-21T20:20:04.817Z,2.67
2022-10-21T20:22:31.976Z,2.88
2022-10-21T20:24:59.085Z,3.03
2022-10-21T20:27:26.654Z,2.80
2022-10-21T20:29:53.758Z,2.83
2022-10-21T20:32:20.894Z,2.63
2022-10-21T20:34:48.947Z,2.70
2022-10-21T20:37:16.107Z,2.35
2022-10-21T20:39:43.272Z,2.60
2022-10-21T20:42:10.391Z,2.60
2022-10-21T20:44:37.632Z,2.50
2022-10-21T20:47:04.777Z,2.63
2022-10-21T20:49:32.027Z,2.90
2022-10-21T20:51:59.157Z,2.53
2022-10-21T20:54:28.081Z,2.72
2022-10-21T20:56:55.295Z,2.75
2022-10-21T20:59:22.395Z,2.92
2022-10-21T21:01:49.536Z,2.50
2022-10-21T21:04:17.620Z,2.22
2022-10-21T21:06:45.870Z,2.60
2022-10-21T21:09:50.266Z,2.47
2022-10-21T21:12:03.513Z,2.35
2022-10-21T21:14:31.371Z,2.50
2022-10-21T21:16:58.599Z,2.65
2022-10-21T21:19:25.863Z,2.53
2022-10-21T21:21:53.220Z,2.50
2022-10-21T21:24:20.592Z,2.60
2022-10-21T21:26:47.725Z,2.30
2022-10-21T21:29:14.948Z,2.70
2022-10-21T21:31:42.428Z,2.50
2022-10-21T21:34:10.080Z,2.60
2022-10-21T21:36:37.749Z,2.40
2022-10-21T21:39:05.796Z,2.60
2022-10-21T21:41:33.132Z,2.53
2022-10-21T21:44:00.279Z,2.73
2022-10-21T21:46:27.601Z,2.80
2022-10-21T21:49:02.342Z,2.33
2022-10-21T21:51:32.438Z,2.60
2022-10-21T21:54:00.141Z,2.53
2022-10-21T21:56:28.042Z,2.40
2022-10-21T21:58:57.580Z,2.65
2022-10-21T22:01:26.448Z,2.40
2022-10-21T22:03:54.143Z,2.40
2022-10-21T22:08:54.632Z,2.47
2022-10-21T22:11:24.884Z,2.22
2022-10-21T22:13:52.530Z,2.42
2022-10-21T22:16:23.824Z,2.40
2022-10-21T22:18:50.977Z,2.92
2022-10-21T22:21:19.432Z,2.65
2022-10-21T22:23:48.190Z,2.58
2022-10-21T22:26:16.349Z,2.40
2022-10-21T22:31:12.609Z,2.30
2022-10-21T22:33:40.173Z,2.60
2022-10-21T22:36:07.898Z,2.33
2022-10-21T22:38:35.504Z,2.55
2022-10-21T22:41:05.186Z,2.38
2022-10-21T22:43:34.416Z,2.35
2022-10-21T22:46:09.817Z,2.40
2022-10-21T22:48:48.532Z,2.70
2022-10-21T22:51:15.652Z,2.40
2022-10-21T22:53:42.787Z,2.40
2022-10-21T22:56:09.998Z,2.50
2022-10-21T22:58:37.192Z,2.30
2022-10-21T23:01:08.526Z,2.60
2022-10-21T23:03:36.380Z,2.78
2022-10-21T23:06:03.500Z,2.47
2022-10-21T23:08:30.650Z,2.50
2022-10-21T23:10:58.774Z,2.60
2022-10-21T23:13:25.919Z,2.40
2022-10-21T23:15:53.032Z,2.30
2022-10-21T23:18:20.207Z,2.58
2022-10-21T23:20:47.326Z,2.38
2022-10-21T23:23:14.457Z,2.13
2022-10-21T23:25:41.580Z,2.45
2022-10-21T23:28:09.886Z,2.58
2022-10-21T23:30:37.548Z,3.03
2022-10-21T23:33:04.763Z,2.63
2022-10-21T23:35:31.939Z,2.40
2022-10-21T23:37:59.454Z,2.60
2022-10-21T23:40:26.779Z,2.15
2022-10-21T23:42:53.893Z,2.43
2022-10-21T23:45:21.110Z,2.47
2022-10-21T23:47:48.259Z,2.60
2022-10-21T23:50:15.498Z,2.75
2022-10-21T23:52:42.610Z,2.53
2022-10-21T23:55:10.098Z,2.33
2022-10-21T23:57:37.209Z,2.50
